• Join FlightAware (Why Join?)
  • Login
  • US Flag 
05:41AM EST


 

Airport Tracker/Info


-or-


 

Live Flight TrackerFlight Track Log ✈ UAL538 ✈ 30-Apr-2013 ✈ KSFO - KPHX

Flight Track Log - Related Links

Times and Time Zones

All times are in EDT time to prevent confusion due to time zone crossing. See the UAL538 flight status page for this flight to view local times or setup timezone preferences in your user account.

Time Position Orientation Groundspeed Altitude Reporting Facility
EDT Latitude Longitude Course Direction KTS MPH feet Rate Location/Type
04:03PM 37.6500 -122.3667 122° Southeast 150 173 1,600  Level Northern Cal TRACON
04:04PM 37.7000 -122.3833 345° North 215 247 3,900 2,760 Climbing Northern Cal TRACON
04:06PM 37.4465 -122.4062 113° Southeast  Level FlightAware Approximate
04:06PM 37.6667 -122.4500 238° Southwest 303 349 7,400  Level Northern Cal TRACON
04:06PM 37.5833 -122.4833 198° South 307 353 10,700 3,000 Climbing Northern Cal TRACON
04:07PM 37.3900 -122.2767 130° Southeast  Level FlightAware Approximate
04:07PM 37.5672 -122.4825 178° South 304 350 11,400  Level Oakland Center
04:08PM 37.3051 -122.1728 136° Southeast  Level FlightAware Approximate
04:08PM 37.4878 -122.3858 136° Southeast 346 398 13,400  Level Oakland Center
04:09PM 37.2301 -122.0602 122° Southeast  Level FlightAware Approximate
04:09PM 37.4169 -122.2783 130° Southeast 386 444 15,100  Level Oakland Center
04:10PM 37.3411 -122.1625 129° Southeast 421 484 17,600 2,280 Climbing Oakland Center
04:11PM 37.2639 -122.0464 130° Southeast 432 497 19,800 1,980 Climbing Oakland Center
04:12PM 37.1831 -121.9256 130° Southeast 450 518 21,700 1,800 Climbing Oakland Center
04:13PM 37.0950 -121.7908 129° Southeast 463 533 23,600 1,620 Climbing Oakland Center
04:14PM 37.0164 -121.6756 130° Southeast 472 543 25,100 1,500 Climbing Oakland Center
04:15PM 36.9297 -121.5472 130° Southeast 480 552 26,700 1,440 Climbing Oakland Center
04:16PM 36.8419 -121.4142 129° Southeast 494 568 28,100 1,800 Climbing Oakland Center
04:17PM 36.7367 -121.2606 131° Southeast 487 560 30,400 1,860 Climbing Oakland Center
04:18PM 36.6497 -121.1339 131° Southeast 482 555 32,000 1,440 Climbing Oakland Center
04:19PM 36.5636 -121.0086 131° Southeast 478 550 33,400 1,260 Climbing Oakland Center
04:20PM 36.4814 -120.8892 131° Southeast 479 551 34,700 1,380 Climbing Oakland Center
04:21PM 36.3850 -120.7492 131° Southeast 473 544 36,300 1,080 Climbing Oakland Center
04:22PM 36.2989 -120.6267 131° Southeast 470 541 37,000 240 Climbing Oakland Center
04:23PM 36.2239 -120.5200 131° Southeast 471 542 36,900  Descending Oakland Center
04:24PM 36.1261 -120.3775 130° Southeast 474 545 37,000  Climbing Oakland Center
04:25PM 36.0364 -120.2506 131° Southeast 465 535 36,900 -60 Descending Oakland Center
04:26PM 35.9519 -120.1306 131° Southeast 464 534 36,900  Level Oakland Center
04:27PM 35.8669 -120.0106 131° Southeast 464 534 37,000  Climbing Oakland Center
04:28PM 35.7819 -119.8903 131° Southeast 464 534 37,000  Level Oakland Center
04:29PM 35.6972 -119.7706 131° Southeast 463 533 37,000  Level Oakland Center
04:30PM 35.6164 -119.6467 129° Southeast 464 534 37,000  Level Oakland Center
04:31PM 35.5386 -119.5183 127° Southeast 466 536 37,000  Level Oakland Center
04:32PM 35.4606 -119.3911 127° Southeast 466 536 37,000  Level Oakland Center
04:33PM 35.4439 -119.3650 128° Southeast 465 535 37,000  Level Los Angeles Center
04:34PM 35.3669 -119.2394 127° Southeast 463 533 37,000  Level Los Angeles Center
04:35PM 35.2744 -119.0892 127° Southeast 462 532 37,000  Level Los Angeles Center
04:36PM 35.1983 -118.9647 127° Southeast 459 528 37,000  Level Los Angeles Center
04:37PM 35.1203 -118.8422 128° Southeast 458 527 37,000  Level Los Angeles Center
04:38PM 35.0436 -118.7172 127° Southeast 460 529 37,000  Level Los Angeles Center
04:39PM 34.9656 -118.5931 127° Southeast 462 532 37,000  Level Los Angeles Center
04:40PM 34.8719 -118.4433 127° Southeast 466 536 37,000  Level Los Angeles Center
04:41PM 34.7933 -118.3194 128° Southeast 465 535 37,000  Level Los Angeles Center
04:42PM 34.7144 -118.1967 128° Southeast 464 534 37,000  Level Los Angeles Center
04:43PM 34.6411 -118.0703 125° Southeast 461 531 37,000  Level Los Angeles Center
04:44PM 34.5892 -117.9278 114° Southeast 465 535 37,000  Level Los Angeles Center
04:45PM 34.5383 -117.7542 110° East 461 531 37,000  Level Los Angeles Center
04:46PM 34.4953 -117.6100 110° East 460 529 37,000  Level Los Angeles Center
04:47PM 34.4514 -117.4647 110° East 462 532 37,000  Level Los Angeles Center
04:48PM 34.4072 -117.3194 110° East 463 533 37,000  Level Los Angeles Center
04:49PM 34.3639 -117.1756 110° East 457 526 37,000  Level Los Angeles Center
04:50PM 34.3114 -117.0014 110° East 462 532 37,000  Level Los Angeles Center
04:51PM 34.2672 -116.8558 110° East 464 534 37,000  Level Los Angeles Center
04:52PM 34.2228 -116.7119 110° East 460 529 37,000  Level Los Angeles Center
04:54PM 34.1694 -116.5403 111° Southeast 457 526 37,000 -60 Level Los Angeles Center
04:55PM 34.1086 -116.3508 111° Southeast 447 514 36,900  Descending Los Angeles Center
04:56PM 34.0642 -116.2097 111° Southeast 447 514 37,000  Climbing Los Angeles Center
04:57PM 34.0192 -116.0658 111° Southeast 454 522 36,900 -60 Descending Los Angeles Center
04:58PM 33.9739 -115.9244 111° Southeast 454 522 36,900  Level Los Angeles Center
04:59PM 33.9275 -115.7781 111° Southeast 463 533 37,000  Climbing Los Angeles Center
05:00PM 33.8714 -115.6075 112° Southeast 456 525 37,000 -60 Level Los Angeles Center
05:01PM 33.8258 -115.4656 111° Southeast 453 521 36,900 -60 Descending Los Angeles Center
05:02PM 33.7792 -115.3244 112° Southeast 454 522 36,900  Level Los Angeles Center
05:03PM 33.7328 -115.1806 111° Southeast 460 529 36,900 -420 Level Los Angeles Center
05:04PM 33.6872 -115.0394 111° Southeast 455 524 36,100 -840 Descending Los Angeles Center
05:05PM 33.6403 -114.8969 112° Southeast 458 527 35,200 -1,020 Descending Los Angeles Center
05:06PM 33.5878 -114.7267 110° East 455 524 34,000 -1,140 Descending Los Angeles Center
05:07PM 33.5669 -114.6142 103° East 457 526 33,000 -1,620 Descending Albuquerque Center
05:08PM 33.5411 -114.4650 102° East 457 526 30,900 -2,340 Descending Albuquerque Center
05:09PM 33.5072 -114.2953 103° East 441 507 28,200 -2,400 Descending Albuquerque Center
05:10PM 33.4803 -114.1572 103° East 429 494 26,100 -1,860 Descending Albuquerque Center
05:11PM 33.4528 -114.0250 104° East 415 478 24,500 -1,260 Descending Albuquerque Center
05:12PM 33.4264 -113.8931 103° East 410 472 23,500 -1,020 Descending Albuquerque Center
05:13PM 33.4000 -113.7603 103° East 410 472 22,500 -1,020 Descending Albuquerque Center
05:14PM 33.3736 -113.6317 104° East 402 463 21,500 -1,020 Descending Albuquerque Center
05:15PM 33.3464 -113.5036 104° East 399 459 20,500 -1,080 Descending Albuquerque Center
05:16PM 33.3153 -113.3508 104° East 394 453 19,300 -1,020 Descending Albuquerque Center
05:17PM 33.2903 -113.2272 104° East 386 444 18,400 -1,020 Descending Albuquerque Center
05:18PM 33.2750 -113.1017 98° East 384 442 17,200 -960 Descending Albuquerque Center
05:19PM 33.2769 -112.9806 89° East 362 417 16,500 -720 Descending Albuquerque Center
05:20PM 33.2789 -112.8619 89° East 357 411 15,800 -660 Descending Albuquerque Center
05:22PM 33.2822 -112.7486 88° East 348 400 15,200 -780 Descending Albuquerque Center
05:23PM 33.2842 -112.6394 89° East 334 384 14,200 -1,080 Descending Albuquerque Center
05:24PM 33.2883 -112.5269 87° East 324 373 13,000 -1,200 Descending Albuquerque Center
05:25PM 33.2906 -112.4217 89° East 319 367 11,800 -1,260 Descending Albuquerque Center
05:26PM 33.2956 -112.2986 87° East 311 358 10,500 -1,020 Descending Albuquerque Center
05:27PM 33.3025 -112.2067 85° East 283 326 9,800 -660 Descending Albuquerque Center
05:28PM 33.3089 -112.1203 85° East 265 305 9,200 -780 Descending Albuquerque Center
05:29PM 33.3256 -112.0381 76° East 257 296 8,200 -1,020 Descending Albuquerque Center
05:30PM 33.3453 -111.9558 74° East 259 298 7,100 -1,020 Descending Albuquerque Center
05:31PM 33.3456 -111.8564 90° East 252 290 6,100 -1,020 Descending Albuquerque Center